Vanceboro, North Carolina
Current Conditions -  °F | °C
As of 12:54 PM on Tuesday 27 Jan 2015 (Local Time) from KEWN Reporting Station
Overcast Overcast  
Wind Chill: 30°   Ceiling: 2400
Heat Index: 38°   Visibility: 10mi
Dew Point: 27°   Wind: 14mph
Humidity: 65%   Direction: 330°NNW
Pressure: 29.79"   Gusts: 22mph
Location:  35.31°N, 77.15°W
Report Text: KEWN 271754Z 33012G19KT 10SM OVC024 03/M03 A2979 RMK AO2 SLP086 T00331028 10039 20028 58008
Loading
Personal Weather Stations






























Interactive Weather Map New forecast layout! Learn more

10-Day Weather Forecast

Advertisements
Track Severe Weather on mobile